Time;durP1;ratioP1;P1;durP2;ratioP2;P2;SDS_P1;SDS_P2;PMS_P1;PMS_P2;Temp;Humidity;BMP_temperature;BMP_pressure;BME280_temperature;BME280_humidity;BME280_pressure;Samples;Min_cycle;Max_cycle;Signal;HPM_P1;HPM_P2
2022/08/13 00:02:10;;;;;;;7.40;3.50;;;17.90;9.90;;;;;;5051281;28;20565;-46
2022/08/13 00:04:37;;;;;;;5.43;3.42;;;18.10;11.00;;;;;;5051245;28;20544;-45
2022/08/13 00:07:07;;;;;;;6.38;3.67;;;18.20;13.40;;;;;;5055050;28;20099;-48
2022/08/13 00:09:35;;;;;;;7.13;3.40;;;17.90;15.90;;;;;;5055501;28;20047;-46
2022/08/13 00:14:47;;;;;;;8.82;3.33;;;17.60;16.90;;;;;;5055537;28;20433;-44
2022/08/13 00:17:14;;;;;;;7.18;3.50;;;18.00;21.70;;;;;;5055478;28;20248;-45
2022/08/13 00:19:42;;;;;;;8.02;3.47;;;17.70;24.60;;;;;;5056810;28;20884;-49
2022/08/13 00:22:09;;;;;;;5.53;3.35;;;19.30;26.70;;;;;;5056759;28;20098;-44
2022/08/13 00:24:38;;;;;;;7.30;3.67;;;18.40;26.50;;;;;;5055853;28;20051;-46
2022/08/13 00:27:05;;;;;;;7.97;3.35;;;19.80;25.40;;;;;;5055343;28;20040;-45
2022/08/13 00:29:30;;;;;;;9.25;3.45;;;17.50;26.00;;;;;;5056625;28;20482;-45
2022/08/13 00:31:56;;;;;;;8.18;3.53;;;17.60;24.70;;;;;;5055963;28;20103;-45
2022/08/13 00:34:22;;;;;;;10.70;4.13;;;17.70;25.20;;;;;;5056482;28;20135;-45
2022/08/13 00:36:48;;;;;;;9.02;3.40;;;17.70;23.80;;;;;;5055345;28;20114;-45
2022/08/13 00:39:14;;;;;;;5.35;3.30;;;17.50;21.60;;;;;;5055342;28;20044;-45
2022/08/13 00:41:45;;;;;;;7.55;2.90;;;18.70;21.30;;;;;;5054379;28;20029;-45
2022/08/13 00:44:13;;;;;;;7.10;3.33;;;19.50;21.30;;;;;;5054060;28;20040;-46
2022/08/13 00:46:40;;;;;;;5.57;3.20;;;19.60;21.90;;;;;;5055167;28;20040;-46
2022/08/13 00:49:09;;;;;;;9.05;3.75;;;18.30;26.50;;;;;;5054415;28;20041;-46
2022/08/13 00:51:36;;;;;;;8.45;3.40;;;18.90;28.60;;;;;;5055146;28;20036;-48
2022/08/13 00:54:05;;;;;;;7.32;3.40;;;17.30;33.70;;;;;;5053094;28;20049;-47
2022/08/13 00:56:34;;;;;;;8.80;3.83;;;17.40;39.90;;;;;;5054476;28;20040;-44
2022/08/13 00:59:11;;;;;;;7.20;3.58;;;17.10;50.10;;;;;;5053379;28;20520;-45
2022/08/13 01:01:45;;;;;;;7.63;3.45;;;17.90;54.60;;;;;;5052643;28;20131;-48
2022/08/13 01:04:12;;;;;;;8.32;3.80;;;16.80;63.10;;;;;;5055548;28;20040;-48
2022/08/13 01:06:38;;;;;;;11.00;4.60;;;16.60;64.30;;;;;;5053977;28;20060;-46
2022/08/13 01:09:05;;;;;;;8.23;3.78;;;18.80;69.50;;;;;;5054665;28;20063;-47
2022/08/13 01:11:33;;;;;;;6.88;3.80;;;16.50;73.00;;;;;;5054021;28;20474;-44
2022/08/13 01:14:02;;;;;;;8.40;4.25;;;16.40;76.70;;;;;;5054904;28;20070;-45
2022/08/13 01:16:29;;;;;;;9.88;4.10;;;16.50;80.00;;;;;;5052332;28;20628;-46
2022/08/13 01:18:57;;;;;;;9.20;4.68;;;17.40;83.20;;;;;;5054963;28;20037;-47
2022/08/13 01:21:30;;;;;;;5.60;3.72;;;16.20;84.20;;;;;;5053032;28;21120;-45
2022/08/13 01:23:59;;;;;;;6.13;3.55;;;16.20;85.90;;;;;;5053711;28;20036;-44
2022/08/13 01:26:25;;;;;;;5.60;3.60;;;16.10;87.50;;;;;;5048212;28;20048;-46
2022/08/13 01:28:51;;;;;;;9.20;4.10;;;16.10;87.90;;;;;;5053760;28;20090;-48
2022/08/13 01:31:19;;;;;;;5.10;3.63;;;16.10;89.30;;;;;;5053920;28;20099;-47
2022/08/13 01:33:47;;;;;;;12.95;4.32;;;16.40;90.70;;;;;;5055951;28;20067;-47
2022/08/13 01:36:12;;;;;;;5.68;3.95;;;16.70;92.20;;;;;;5035636;28;20148;-47
2022/08/13 01:38:40;;;;;;;7.55;3.63;;;16.00;92.30;;;;;;5054590;28;20033;-44
2022/08/13 01:41:08;;;;;;;8.77;3.97;;;15.80;92.50;;;;;;5052971;28;20050;-46
2022/08/13 01:43:39;;;;;;;6.18;4.00;;;16.00;93.50;;;;;;5054585;28;20059;-48
2022/08/13 01:46:07;;;;;;;13.38;4.10;;;16.20;94.40;;;;;;5054593;28;20061;-44
2022/08/13 01:51:24;;;;;;;9.65;4.28;;;15.80;95.10;;;;;;5053534;28;20071;-46
2022/08/13 01:53:59;;;;;;;6.53;3.85;;;15.80;96.10;;;;;;5053494;28;20055;-49
2022/08/13 01:56:28;;;;;;;7.95;4.28;;;15.90;96.30;;;;;;5053798;28;20120;-46
2022/08/13 01:58:57;;;;;;;9.50;4.45;;;15.90;96.70;;;;;;5052863;28;20086;-45
2022/08/13 02:01:25;;;;;;;6.03;3.75;;;15.60;96.10;;;;;;5053964;28;20051;-45
2022/08/13 02:03:51;;;;;;;9.05;4.10;;;17.10;95.30;;;;;;5054258;28;20759;-44
2022/08/13 02:06:28;;;;;;;9.93;4.75;;;17.80;95.60;;;;;;5053127;28;20147;-43
2022/08/13 02:09:04;;;;;;;7.35;4.40;;;16.50;95.70;;;;;;5053903;28;20673;-45
2022/08/13 02:11:34;;;;;;;6.55;3.97;;;15.70;95.80;;;;;;5052049;28;20562;-47
2022/08/13 02:14:03;;;;;;;8.32;4.05;;;16.10;95.40;;;;;;5053008;28;20093;-46
2022/08/13 02:16:34;;;;;;;8.52;4.18;;;17.90;95.70;;;;;;5053240;28;20105;-48
2022/08/13 02:19:02;;;;;;;8.68;4.00;;;16.00;95.30;;;;;;5054050;28;20072;-48
2022/08/13 02:21:32;;;;;;;7.22;3.92;;;15.60;95.10;;;;;;5053341;28;20052;-44
2022/08/13 02:24:03;;;;;;;8.23;4.22;;;16.70;95.70;;;;;;5053365;28;20046;-46
2022/08/13 02:26:32;;;;;;;7.88;4.40;;;15.80;95.10;;;;;;5052005;28;20066;-45
2022/08/13 02:29:00;;;;;;;7.05;3.90;;;15.70;95.30;;;;;;5051802;28;20035;-47
2022/08/13 02:31:28;;;;;;;7.18;3.60;;;15.60;95.40;;;;;;5053230;28;20682;-49
2022/08/13 02:33:54;;;;;;;10.02;4.15;;;15.60;95.40;;;;;;5052411;28;20047;-46
2022/08/13 02:36:22;;;;;;;6.78;4.18;;;17.70;96.00;;;;;;5053570;28;20052;-44
2022/08/13 02:39:01;;;;;;;7.93;4.13;;;17.40;96.20;;;;;;5054374;28;20071;-45
2022/08/13 02:41:42;;;;;;;6.53;4.20;;;15.50;96.80;;;;;;5053841;28;20036;-49
2022/08/13 02:44:14;;;;;;;9.23;4.80;;;15.40;97.00;;;;;;5053696;28;20071;-45
2022/08/13 02:46:42;;;;;;;9.23;5.07;;;15.40;98.10;;;;;;5054528;28;20550;-44
2022/08/13 02:49:09;;;;;;;9.95;5.10;;;15.50;99.60;;;;;;5052428;28;20755;-45
2022/08/13 02:51:36;;;;;;;7.45;4.60;;;17.30;99.90;;;;;;5054262;28;20068;-45
2022/08/13 02:54:01;;;;;;;8.15;4.68;;;15.40;99.90;;;;;;5053351;28;20037;-44
2022/08/13 02:56:29;;;;;;;10.75;4.82;;;15.30;99.90;;;;;;5054430;28;20574;-44
2022/08/13 02:58:56;;;;;;;9.43;4.93;;;15.20;99.90;;;;;;5053021;28;20045;-45
2022/08/13 03:01:24;;;;;;;10.13;4.85;;;15.20;99.90;;;;;;5052721;28;20055;-44
2022/08/13 03:03:50;;;;;;;8.55;4.38;;;15.20;99.90;;;;;;5051972;28;20047;-46
2022/08/13 03:06:21;;;;;;;7.00;4.20;;;16.60;99.90;;;;;;5051349;28;20048;-46
2022/08/13 03:08:51;;;;;;;9.10;5.05;;;15.00;99.90;;;;;;5052328;28;20749;-47
2022/08/13 03:11:18;;;;;;;8.40;4.60;;;15.60;99.90;;;;;;5052310;28;20043;-46
2022/08/13 03:13:50;;;;;;;7.03;4.53;;;16.30;99.90;;;;;;5052794;28;20040;-47
2022/08/13 03:16:17;;;;;;;6.93;4.90;;;15.00;99.90;;;;;;5052634;28;20586;-44
2022/08/13 03:18:47;;;;;;;9.20;4.57;;;15.00;99.90;;;;;;5052016;28;20040;-49
2022/08/13 03:21:16;;;;;;;9.07;4.70;;;14.80;99.90;;;;;;5053592;28;20041;-45
2022/08/13 03:23:43;;;;;;;8.68;5.45;;;14.80;99.90;;;;;;5052498;28;20043;-46
2022/08/13 03:26:11;;;;;;;7.30;5.13;;;14.80;99.90;;;;;;5052546;28;20041;-48
2022/08/13 03:28:39;;;;;;;9.05;5.03;;;14.90;99.90;;;;;;5050432;28;20087;-44
2022/08/13 03:31:06;;;;;;;8.98;5.03;;;15.50;99.90;;;;;;5052080;28;20485;-44
2022/08/13 03:33:32;;;;;;;9.00;4.50;;;14.80;99.90;;;;;;5051496;28;20048;-46
2022/08/13 03:35:58;;;;;;;9.00;5.00;;;16.30;99.90;;;;;;5052697;28;20036;-47
2022/08/13 03:38:24;;;;;;;10.02;4.50;;;14.70;99.90;;;;;;5051849;28;20102;-48
2022/08/13 03:41:01;;;;;;;6.80;4.22;;;14.60;99.90;;;;;;5053919;28;20872;-44
2022/08/13 03:43:32;;;;;;;12.52;5.18;;;15.40;99.90;;;;;;5056468;28;20119;-43
2022/08/13 03:45:58;;;;;;;13.48;5.10;;;15.70;99.90;;;;;;5055922;28;20048;-44
2022/08/13 03:48:25;;;;;;;9.85;4.97;;;14.60;99.90;;;;;;5055418;28;20036;-44
2022/08/13 03:50:53;;;;;;;9.85;4.60;;;14.70;99.90;;;;;;5056752;28;20054;-45
2022/08/13 03:53:22;;;;;;;9.15;5.53;;;14.60;99.90;;;;;;5056506;28;22162;-44
2022/08/13 03:55:48;;;;;;;11.45;5.30;;;14.70;99.90;;;;;;5057283;28;20043;-43
2022/08/13 03:58:15;;;;;;;7.95;5.13;;;14.50;99.90;;;;;;5055783;28;20273;-45
2022/08/13 04:00:49;;;;;;;8.88;4.90;;;15.10;99.90;;;;;;5056835;28;20055;-44
2022/08/13 04:03:29;;;;;;;7.80;4.55;;;14.70;99.90;;;;;;5056350;28;20045;-45
2022/08/13 04:05:58;;;;;;;7.55;4.60;;;15.80;99.90;;;;;;5056033;28;20051;-46
2022/08/13 04:08:26;;;;;;;14.65;4.85;;;14.60;99.90;;;;;;5057054;28;20740;-45
2022/08/13 04:10:52;;;;;;;10.15;4.45;;;14.40;99.90;;;;;;5057124;28;20041;-45
2022/08/13 04:13:19;;;;;;;8.80;4.72;;;14.70;99.90;;;;;;5055781;28;20082;-44
2022/08/13 04:15:45;;;;;;;11.00;4.80;;;16.60;99.90;;;;;;5056898;28;20049;-44
2022/08/13 04:18:15;;;;;;;6.63;4.53;;;15.60;99.90;;;;;;5053965;28;20040;-45
2022/08/13 04:20:52;;;;;;;7.00;4.63;;;14.20;99.90;;;;;;5057229;28;20047;-43
2022/08/13 04:23:20;;;;;;;9.82;4.90;;;14.30;99.90;;;;;;5054926;28;20614;-43
2022/08/13 04:25:47;;;;;;;8.00;4.35;;;14.40;99.90;;;;;;5055865;28;20467;-45
2022/08/13 04:28:15;;;;;;;12.00;4.53;;;15.00;99.90;;;;;;5055732;28;20032;-44
2022/08/13 04:30:42;;;;;;;7.25;4.78;;;13.80;99.90;;;;;;5055517;28;20075;-47
2022/08/13 04:33:10;;;;;;;8.30;5.10;;;14.90;99.90;;;;;;5054195;28;20032;-44
2022/08/13 04:35:38;;;;;;;7.45;4.32;;;14.30;99.90;;;;;;5053173;28;20559;-44
2022/08/13 04:38:08;;;;;;;7.68;4.50;;;14.40;99.90;;;;;;5054908;28;20039;-45
2022/08/13 04:40:41;;;;;;;8.82;4.97;;;15.10;99.90;;;;;;5055052;28;20123;-43
2022/08/13 04:43:10;;;;;;;9.88;4.18;;;14.40;99.90;;;;;;5054798;28;20054;-45
2022/08/13 04:45:37;;;;;;;10.40;4.70;;;14.40;99.90;;;;;;5053873;28;20036;-45
2022/08/13 04:48:07;;;;;;;6.82;4.40;;;15.30;99.90;;;;;;5054033;28;20032;-45
2022/08/13 04:50:34;;;;;;;8.10;5.25;;;14.50;99.90;;;;;;5056171;28;20048;-44
2022/08/13 04:53:05;;;;;;;6.82;4.72;;;14.50;99.90;;;;;;5053288;28;20578;-47
2022/08/13 04:55:32;;;;;;;11.48;5.10;;;15.30;99.90;;;;;;5054363;28;20041;-44
2022/08/13 04:57:58;;;;;;;10.95;4.88;;;14.50;99.90;;;;;;5054264;28;20158;-51
2022/08/13 05:00:25;;;;;;;10.20;4.95;;;15.40;99.90;;;;;;5052850;28;20075;-49
2022/08/13 05:02:54;;;;;;;7.50;4.35;;;14.70;99.90;;;;;;5052796;28;20132;-47
2022/08/13 05:05:24;;;;;;;6.93;4.97;;;15.40;99.90;;;;;;5054082;28;20171;-46
2022/08/13 05:07:52;;;;;;;8.25;4.40;;;14.70;99.90;;;;;;5054650;28;20513;-45
2022/08/13 05:10:21;;;;;;;6.65;4.30;;;14.90;99.90;;;;;;5053941;28;20398;-46
2022/08/13 05:12:47;;;;;;;11.75;4.38;;;17.00;99.90;;;;;;5054127;28;20508;-46
2022/08/13 05:15:13;;;;;;;13.48;4.13;;;16.80;99.90;;;;;;5054659;28;20041;-47
2022/08/13 05:17:43;;;;;;;10.32;4.30;;;15.50;99.90;;;;;;5054316;28;20036;-47
2022/08/13 05:20:13;;;;;;;19.50;4.57;;;15.10;99.90;;;;;;5054303;28;20040;-47
2022/08/13 05:22:39;;;;;;;7.65;4.30;;;15.60;99.90;;;;;;5054445;28;20040;-49
2022/08/13 05:25:05;;;;;;;10.00;4.50;;;15.30;99.30;;;;;;5055480;28;20493;-48
2022/08/13 05:27:33;;;;;;;9.45;4.70;;;15.40;98.50;;;;;;5054667;28;20044;-44
2022/08/13 05:30:00;;;;;;;8.23;4.93;;;15.60;97.20;;;;;;5052784;28;20040;-45
2022/08/13 05:32:27;;;;;;;10.60;4.70;;;15.90;96.10;;;;;;5054072;28;20123;-46
2022/08/13 05:34:59;;;;;;;8.15;4.28;;;17.60;96.40;;;;;;5055557;28;20047;-46
2022/08/13 05:37:24;;;;;;;9.15;4.15;;;17.50;96.20;;;;;;5055576;28;20036;-45
2022/08/13 05:39:50;;;;;;;6.32;4.00;;;16.10;94.60;;;;;;5053248;28;20051;-46
2022/08/13 05:42:18;;;;;;;13.80;4.50;;;16.30;93.30;;;;;;5053765;28;20269;-48
2022/08/13 05:44:47;;;;;;;7.07;4.00;;;16.50;91.80;;;;;;5052639;28;20056;-47
2022/08/13 05:47:14;;;;;;;7.50;3.88;;;17.40;89.10;;;;;;5028380;28;20044;-46
2022/08/13 05:49:39;;;;;;;9.75;3.75;;;17.40;81.20;;;;;;5053131;28;20448;-44
2022/08/13 05:52:05;;;;;;;12.68;3.78;;;17.30;75.80;;;;;;5054246;28;20052;-47
2022/08/13 05:54:31;;;;;;;9.43;4.20;;;17.60;57.30;;;;;;5052647;28;20041;-46
2022/08/13 05:56:57;;;;;;;7.18;3.15;;;17.80;51.60;;;;;;5052806;28;20044;-43
2022/08/13 06:04:53;;;;;;;5.10;2.85;;;21.00;1.00;;;;;;5054403;28;20051;-46
2022/08/13 06:07:19;;;;;;;5.43;2.88;;;21.10;99.90;;;;;;5050946;28;20052;-45
2022/08/13 06:09:45;;;;;;;7.05;3.08;;;19.50;99.90;;;;;;5052815;28;20040;-47
2022/08/13 06:12:11;;;;;;;5.43;3.20;;;20.10;99.90;;;;;;5052165;28;20339;-47
2022/08/13 06:14:38;;;;;;;6.30;2.25;;;21.20;99.90;;;;;;5052511;28;20036;-47
2022/08/13 06:17:04;;;;;;;5.90;2.38;;;21.20;99.90;;;;;;5053544;28;20109;-47
2022/08/13 06:19:34;;;;;;;6.45;2.40;;;21.20;99.90;;;;;;5052116;28;20089;-44
2022/08/13 06:22:02;;;;;;;6.22;2.50;;;21.50;1.00;;;;;;5051676;28;20063;-48
2022/08/13 06:24:35;;;;;;;5.75;2.50;;;23.70;1.00;;;;;;5051439;28;20033;-45
2022/08/13 06:27:04;;;;;;;6.55;1.90;;;22.00;99.90;;;;;;5052039;28;20476;-48
2022/08/13 06:29:33;;;;;;;5.57;2.15;;;22.10;1.00;;;;;;5051761;28;20052;-48
2022/08/13 06:32:03;;;;;;;6.05;2.10;;;22.20;99.90;;;;;;5053204;28;20048;-48
2022/08/13 06:34:35;;;;;;;5.57;2.13;;;22.30;78.30;;;;;;5052861;28;20051;-49
2022/08/13 06:37:04;;;;;;;6.75;2.15;;;22.60;99.90;;;;;;5052821;28;20040;-47
2022/08/13 06:39:33;;;;;;;4.22;1.90;;;22.80;99.90;;;;;;5053337;28;20574;-49
2022/08/13 06:42:04;;;;;;;4.35;1.58;;;22.90;99.90;;;;;;5053424;28;20040;-46
2022/08/13 06:44:34;;;;;;;5.45;1.63;;;23.00;1.00;;;;;;5051258;28;20503;-48
2022/08/13 06:47:04;;;;;;;4.57;2.00;;;23.60;1.00;;;;;;5051102;28;20044;-45
2022/08/13 06:49:34;;;;;;;3.97;1.85;;;23.40;99.90;;;;;;5052681;28;20123;-45
2022/08/13 06:52:00;;;;;;;4.90;1.60;;;23.80;99.90;;;;;;5051895;28;20091;-45
2022/08/13 06:54:27;;;;;;;6.10;2.00;;;24.50;99.90;;;;;;5051183;28;20144;-44
2022/08/13 06:56:58;;;;;;;7.15;1.80;;;25.70;99.90;;;;;;5052431;28;20116;-45
2022/08/13 06:59:24;;;;;;;8.43;1.67;;;27.10;1.00;;;;;;5051327;28;20052;-45
2022/08/13 07:02:00;;;;;;;5.97;2.60;;;28.00;99.90;;;;;;5052240;28;20051;-45
2022/08/13 07:04:29;;;;;;;3.53;1.48;;;28.80;1.00;;;;;;5052776;28;20130;-45
2022/08/13 07:06:55;;;;;;;2.65;1.40;;;30.00;90.90;;;;;;5051604;28;20040;-45
2022/08/13 07:09:22;;;;;;;3.17;1.30;;;30.80;97.50;;;;;;5052028;28;20044;-48
2022/08/13 07:11:50;;;;;;;7.28;1.27;;;31.60;95.90;;;;;;5052054;28;20520;-47
2022/08/13 07:14:16;;;;;;;5.55;1.40;;;32.10;94.30;;;;;;5053066;28;21069;-46
2022/08/13 07:16:44;;;;;;;5.82;1.50;;;32.30;93.60;;;;;;5055045;28;20089;-46
2022/08/13 07:19:12;;;;;;;6.20;1.52;;;32.30;92.60;;;;;;5055399;28;20078;-47
2022/08/13 07:21:40;;;;;;;9.77;1.55;;;35.00;93.20;;;;;;5054945;28;20440;-45
2022/08/13 07:24:07;;;;;;;3.85;1.20;;;33.70;91.00;;;;;;5053629;28;20110;-49
2022/08/13 07:26:36;;;;;;;3.90;1.23;;;33.60;90.30;;;;;;5053638;28;20560;-45
2022/08/13 07:29:04;;;;;;;3.33;1.20;;;34.10;87.60;;;;;;5056058;28;20055;-47
2022/08/13 07:31:32;;;;;;;4.30;1.30;;;34.50;86.10;;;;;;5056182;28;20617;-46
2022/08/13 07:34:01;;;;;;;3.40;1.33;;;34.80;85.60;;;;;;5055712;28;20048;-48
2022/08/13 07:36:35;;;;;;;4.30;1.55;;;35.10;83.90;;;;;;5053955;28;20036;-50
2022/08/13 07:39:07;;;;;;;5.35;1.10;;;34.80;81.70;;;;;;5053796;28;20068;-50
2022/08/13 07:41:40;;;;;;;3.67;1.27;;;34.90;81.20;;;;;;5054519;28;20047;-50
2022/08/13 07:44:20;;;;;;;4.80;1.38;;;34.60;80.50;;;;;;5055360;28;20071;-46
2022/08/13 07:46:46;;;;;;;5.45;1.20;;;34.20;82.10;;;;;;5054881;28;20037;-48
2022/08/13 07:49:13;;;;;;;8.50;1.60;;;33.60;82.40;;;;;;5056714;28;20052;-49
2022/08/13 07:51:43;;;;;;;5.28;1.30;;;31.80;83.80;;;;;;5058121;28;20610;-47
2022/08/13 07:54:10;;;;;;;6.57;1.35;;;31.50;85.40;;;;;;5057052;28;20040;-50
2022/08/13 07:56:37;;;;;;;5.63;1.38;;;31.20;85.70;;;;;;5057095;28;20032;-48
2022/08/13 07:59:06;;;;;;;2.90;1.25;;;31.00;86.10;;;;;;5056927;28;20091;-46
2022/08/13 08:01:43;;;;;;;6.32;1.30;;;30.30;87.30;;;;;;5057126;28;20048;-46
2022/08/13 08:04:12;;;;;;;3.55;1.27;;;29.70;89.40;;;;;;5056988;28;20122;-46
2022/08/13 08:06:39;;;;;;;3.88;1.15;;;29.10;89.20;;;;;;5056130;28;20071;-49
2022/08/13 08:09:07;;;;;;;5.65;1.30;;;28.80;89.70;;;;;;5056625;28;20087;-47
2022/08/13 08:14:19;;;;;;;3.90;1.40;;;28.10;90.50;;;;;;5056617;28;20618;-46
2022/08/13 08:16:46;;;;;;;3.97;1.27;;;28.00;91.20;;;;;;5056648;28;20048;-47
2022/08/13 08:19:14;;;;;;;5.47;1.35;;;28.10;91.40;;;;;;5056084;28;20037;-47
2022/08/13 08:21:41;;;;;;;3.63;1.20;;;27.90;91.50;;;;;;5056170;28;20139;-46
2022/08/13 08:24:07;;;;;;;3.40;1.48;;;27.70;91.50;;;;;;5055429;28;20577;-45
2022/08/13 08:26:35;;;;;;;5.55;1.73;;;27.60;91.60;;;;;;5054010;28;20033;-48
2022/08/13 08:29:05;;;;;;;5.85;1.13;;;27.50;91.70;;;;;;5056245;28;20044;-46
2022/08/13 08:31:33;;;;;;;5.68;1.20;;;27.50;91.70;;;;;;5056260;28;20519;-47
2022/08/13 08:34:01;;;;;;;4.85;1.30;;;29.50;92.00;;;;;;5055528;28;20064;-45
2022/08/13 08:36:29;;;;;;;5.95;1.48;;;27.40;91.30;;;;;;5055139;28;20041;-50
2022/08/13 08:44:32;;;;;;;4.63;1.00;;;27.70;91.30;;;;;;5054205;28;20052;-46
2022/08/13 08:47:00;;;;;;;6.57;1.20;;;27.50;91.30;;;;;;5054924;28;20047;-46
2022/08/13 08:49:26;;;;;;;4.82;1.40;;;27.40;91.20;;;;;;5054009;28;20146;-46
2022/08/13 08:51:53;;;;;;;3.67;1.10;;;27.30;91.30;;;;;;5056038;28;20063;-47
2022/08/13 08:54:22;;;;;;;2.42;1.00;;;27.20;91.40;;;;;;5055679;28;20052;-48
2022/08/13 08:56:51;;;;;;;2.78;1.10;;;27.10;91.10;;;;;;5054699;28;20059;-50
2022/08/13 08:59:17;;;;;;;4.10;1.00;;;27.20;91.40;;;;;;5053885;28;20135;-47
2022/08/13 09:01:44;;;;;;;2.83;1.10;;;27.30;91.20;;;;;;5055062;28;20490;-47
2022/08/13 09:04:11;;;;;;;3.88;1.30;;;27.30;91.40;;;;;;5054256;28;20404;-45
2022/08/13 09:06:38;;;;;;;6.18;1.35;;;27.20;91.10;;;;;;5055653;28;20047;-49
2022/08/13 09:09:08;;;;;;;4.68;0.95;;;27.30;90.90;;;;;;5054618;28;20069;-47
2022/08/13 09:11:36;;;;;;;2.92;1.17;;;27.40;90.60;;;;;;5054309;28;20032;-47
2022/08/13 09:14:05;;;;;;;3.45;1.02;;;27.30;90.70;;;;;;5055614;28;20051;-48
2022/08/13 09:16:33;;;;;;;4.03;1.00;;;27.20;91.00;;;;;;5056057;28;20044;-46
2022/08/13 09:18:59;;;;;;;5.72;1.13;;;27.30;91.00;;;;;;5055494;28;20123;-48
2022/08/13 09:21:25;;;;;;;4.45;0.93;;;27.50;91.50;;;;;;5055421;28;20173;-48
2022/08/13 09:23:55;;;;;;;4.05;1.00;;;27.60;91.00;;;;;;5055035;28;20120;-49
2022/08/13 09:26:22;;;;;;;5.63;0.88;;;27.80;90.30;;;;;;5056224;28;20087;-46
2022/08/13 09:28:52;;;;;;;4.07;0.80;;;27.70;89.30;;;;;;5055618;28;20462;-47
2022/08/13 09:31:20;;;;;;;3.92;1.00;;;27.60;88.50;;;;;;5055377;28;20056;-49
2022/08/13 09:33:45;;;;;;;10.20;1.90;;;27.80;89.50;;;;;;5055122;28;20036;-50
2022/08/13 09:36:11;;;;;;;3.67;1.20;;;27.80;89.50;;;;;;5054446;28;20386;-46
2022/08/13 09:38:39;;;;;;;2.95;0.80;;;28.00;89.80;;;;;;5054685;28;20080;-49
2022/08/13 09:41:17;;;;;;;12.55;1.23;;;28.20;88.80;;;;;;5055807;28;20097;-51
2022/08/13 09:43:44;;;;;;;2.75;1.20;;;28.30;88.50;;;;;;5056034;28;20381;-49
2022/08/13 09:46:11;;;;;;;4.93;1.10;;;28.40;87.50;;;;;;5055116;28;20051;-49
2022/08/13 09:48:37;;;;;;;2.70;0.90;;;28.30;87.70;;;;;;5054134;28;20476;-45
2022/08/13 09:51:05;;;;;;;3.50;1.27;;;28.50;88.90;;;;;;5054893;28;20123;-49
2022/08/13 09:53:31;;;;;;;4.25;1.00;;;28.60;88.50;;;;;;5053395;28;20052;-50
2022/08/13 09:55:56;;;;;;;6.93;1.15;;;28.70;89.20;;;;;;5054628;28;20041;-49
2022/08/13 09:58:23;;;;;;;3.95;1.00;;;28.80;86.60;;;;;;5054312;28;20044;-50
2022/08/13 10:00:50;;;;;;;3.10;1.00;;;28.70;86.20;;;;;;5054011;28;20049;-45
2022/08/13 10:03:17;;;;;;;5.13;0.98;;;28.90;85.90;;;;;;5053952;28;20048;-48
2022/08/13 10:05:46;;;;;;;4.57;1.10;;;29.20;86.10;;;;;;5054496;28;20178;-49
2022/08/13 10:08:17;;;;;;;6.18;1.30;;;29.20;87.00;;;;;;5053585;28;21168;-47
2022/08/13 10:10:44;;;;;;;6.18;1.10;;;29.20;86.70;;;;;;5053755;28;20564;-46
2022/08/13 10:13:11;;;;;;;8.45;1.33;;;29.10;86.00;;;;;;5054783;28;20437;-50
2022/08/13 10:15:37;;;;;;;2.08;0.95;;;29.60;85.70;;;;;;5053765;28;20040;-50
2022/08/13 10:18:04;;;;;;;4.75;1.15;;;29.50;85.20;;;;;;5052711;28;20055;-48
2022/08/13 10:20:33;;;;;;;4.75;1.00;;;29.60;84.70;;;;;;5053398;28;20895;-47
2022/08/13 10:23:02;;;;;;;5.57;1.30;;;29.90;85.30;;;;;;5054539;28;20159;-46
2022/08/13 10:25:29;;;;;;;3.45;1.10;;;30.00;85.90;;;;;;5053157;28;20584;-47
2022/08/13 10:27:57;;;;;;;4.85;1.10;;;30.00;84.30;;;;;;5053416;28;20040;-48
2022/08/13 10:30:25;;;;;;;2.03;1.08;;;30.10;85.60;;;;;;5053958;28;20037;-47
2022/08/13 10:32:54;;;;;;;3.83;1.02;;;30.10;84.30;;;;;;5051539;28;20036;-46
2022/08/13 10:35:21;;;;;;;3.53;0.93;;;30.40;83.50;;;;;;5053732;28;20051;-50
2022/08/13 10:37:53;;;;;;;4.22;1.20;;;30.50;82.80;;;;;;5053639;28;20513;-49
2022/08/13 10:40:20;;;;;;;4.53;1.08;;;30.70;83.10;;;;;;5051830;28;20045;-49
2022/08/13 10:42:46;;;;;;;2.13;1.00;;;33.20;84.80;;;;;;5053572;28;20514;-47
2022/08/13 10:45:15;;;;;;;2.28;1.10;;;30.90;83.90;;;;;;5053964;28;20070;-46
2022/08/13 10:47:50;;;;;;;3.95;1.10;;;30.80;82.50;;;;;;5055078;28;20052;-46
2022/08/13 10:50:19;;;;;;;2.60;1.00;;;31.00;80.60;;;;;;5053148;28;20038;-48
2022/08/13 10:52:46;;;;;;;4.72;0.98;;;31.20;82.00;;;;;;5054544;28;22122;-49
2022/08/13 10:55:14;;;;;;;3.33;1.00;;;31.00;80.00;;;;;;5054117;28;20033;-47
2022/08/13 10:57:43;;;;;;;3.53;1.00;;;31.00;81.20;;;;;;5052472;28;20057;-47
2022/08/13 11:00:16;;;;;;;3.58;0.80;;;31.30;81.50;;;;;;5054122;28;20044;-46
2022/08/13 11:02:43;;;;;;;3.28;0.90;;;31.20;81.30;;;;;;5052066;28;20036;-48
2022/08/13 11:05:11;;;;;;;3.95;0.90;;;31.20;81.00;;;;;;5053351;28;20037;-46
2022/08/13 11:07:38;;;;;;;2.63;0.70;;;31.10;80.00;;;;;;5052431;28;20225;-47
2022/08/13 11:10:07;;;;;;;3.92;1.10;;;31.10;79.30;;;;;;5052717;28;20032;-49
2022/08/13 11:12:34;;;;;;;2.75;1.10;;;31.20;79.80;;;;;;5052713;28;20698;-46
2022/08/13 11:15:00;;;;;;;4.38;0.90;;;31.30;80.80;;;;;;5053285;28;20440;-48
2022/08/13 11:17:26;;;;;;;5.90;0.80;;;31.30;80.20;;;;;;5052872;28;20117;-48
2022/08/13 11:19:52;;;;;;;2.20;1.00;;;31.40;81.00;;;;;;5052555;28;20421;-47
2022/08/13 11:22:28;;;;;;;2.97;1.10;;;31.60;80.20;;;;;;5052738;28;20107;-44
2022/08/13 11:24:59;;;;;;;2.80;1.00;;;31.40;79.00;;;;;;5052871;28;20051;-48
2022/08/13 11:27:25;;;;;;;4.10;1.63;;;31.60;79.80;;;;;;5052185;28;20715;-48
2022/08/13 11:29:53;;;;;;;6.07;1.00;;;31.70;79.40;;;;;;5052038;28;20037;-48
2022/08/13 11:32:20;;;;;;;4.45;1.20;;;31.50;78.20;;;;;;5052838;28;20424;-49
2022/08/13 11:34:46;;;;;;;2.13;0.88;;;32.00;79.50;;;;;;5052536;28;20864;-47
2022/08/13 11:37:12;;;;;;;2.65;1.10;;;31.90;80.10;;;;;;5052758;28;20046;-47
2022/08/13 11:39:39;;;;;;;2.42;1.20;;;31.70;78.10;;;;;;5052301;28;20397;-45
2022/08/13 11:42:05;;;;;;;2.83;1.08;;;31.70;77.80;;;;;;5053338;28;21520;-46
2022/08/13 11:44:31;;;;;;;1.55;0.90;;;31.70;78.90;;;;;;5053098;28;20035;-47
2022/08/13 11:46:57;;;;;;;4.45;1.35;;;31.90;77.90;;;;;;5052629;28;20043;-46
2022/08/13 11:49:22;;;;;;;4.40;1.00;;;32.10;78.50;;;;;;5051803;28;20062;-44
2022/08/13 11:51:48;;;;;;;5.28;0.98;;;32.10;79.00;;;;;;5052468;28;20040;-45
2022/08/13 11:54:18;;;;;;;3.72;0.93;;;32.10;80.50;;;;;;5053241;28;20066;-45
2022/08/13 11:56:44;;;;;;;2.03;0.90;;;32.30;76.70;;;;;;5053191;28;20040;-46
2022/08/13 11:59:10;;;;;;;3.28;0.90;;;32.10;77.40;;;;;;5051611;28;20057;-46
2022/08/13 12:01:36;;;;;;;2.25;0.90;;;32.10;76.70;;;;;;5053813;28;20537;-49
2022/08/13 12:04:02;;;;;;;3.67;0.90;;;31.90;77.90;;;;;;5056501;28;20405;-47
2022/08/13 12:06:28;;;;;;;2.70;1.20;;;31.90;78.50;;;;;;5051877;28;20094;-47
2022/08/13 12:08:55;;;;;;;1.83;0.80;;;31.80;77.70;;;;;;5057234;28;20033;-45
2022/08/13 12:11:21;;;;;;;5.10;1.00;;;32.00;78.70;;;;;;5055315;28;20056;-44
2022/08/13 12:13:47;;;;;;;2.17;1.10;;;31.90;76.60;;;;;;5055930;28;20537;-46
2022/08/13 12:16:13;;;;;;;2.28;0.98;;;32.00;76.90;;;;;;5056560;28;20040;-48
2022/08/13 12:18:38;;;;;;;3.55;1.02;;;32.00;75.80;;;;;;5056465;28;20037;-47
2022/08/13 12:21:04;;;;;;;5.88;1.00;;;31.70;76.00;;;;;;5056816;28;20048;-48
2022/08/13 12:23:30;;;;;;;5.43;1.25;;;31.80;75.90;;;;;;5056890;28;20131;-47
2022/08/13 12:25:56;;;;;;;3.42;0.88;;;31.30;76.30;;;;;;5055149;28;20071;-48
2022/08/13 12:28:23;;;;;;;10.02;1.45;;;31.80;78.20;;;;;;5055344;28;20100;-49
2022/08/13 12:30:54;;;;;;;3.80;1.10;;;31.80;76.70;;;;;;5055708;28;20400;-44
2022/08/13 12:33:21;;;;;;;2.83;1.00;;;31.50;77.50;;;;;;5055403;28;20600;-47
2022/08/13 12:35:46;;;;;;;4.25;0.95;;;30.90;76.70;;;;;;5056997;28;20406;-49
2022/08/13 12:38:15;;;;;;;7.65;1.15;;;30.70;77.40;;;;;;5052448;28;20143;-50
2022/08/13 12:40:42;;;;;;;3.30;1.30;;;30.80;77.80;;;;;;5054278;28;20044;-45
2022/08/13 12:43:08;;;;;;;3.35;0.98;;;31.00;77.20;;;;;;5053462;28;20604;-50
2022/08/13 12:45:35;;;;;;;2.53;1.00;;;31.20;77.90;;;;;;5054074;28;20036;-49
2022/08/13 12:48:06;;;;;;;2.15;1.20;;;31.00;77.00;;;;;;5054380;28;20063;-50
2022/08/13 12:50:32;;;;;;;4.65;1.10;;;30.80;77.60;;;;;;5054132;28;20351;-49
2022/08/13 12:52:57;;;;;;;2.95;1.00;;;30.90;78.10;;;;;;5055225;28;20433;-47
2022/08/13 12:55:23;;;;;;;3.70;0.95;;;31.00;77.20;;;;;;5054935;28;20182;-49
2022/08/13 12:57:50;;;;;;;4.75;1.25;;;31.20;76.60;;;;;;5054289;28;20105;-48
2022/08/13 13:00:16;;;;;;;2.35;0.98;;;30.90;75.80;;;;;;5053865;28;20036;-50
2022/08/13 13:02:42;;;;;;;3.42;1.10;;;31.20;76.00;;;;;;5055100;28;20447;-50
2022/08/13 13:05:08;;;;;;;2.72;1.00;;;31.30;77.00;;;;;;5053776;28;20044;-47
2022/08/13 13:07:36;;;;;;;4.68;0.95;;;31.20;76.70;;;;;;5054173;28;20051;-46
2022/08/13 13:10:02;;;;;;;2.63;1.15;;;31.40;75.70;;;;;;5054032;28;20055;-47